Time;durP1;ratioP1;P1;durP2;ratioP2;P2;SDS_P1;SDS_P2;PMS_P1;PMS_P2;Temp;Humidity;BMP_temperature;BMP_pressure;BME280_temperature;BME280_humidity;BME280_pressure;Samples;Min_cycle;Max_cycle;Signal;HPM_P1;HPM_P2
2023/10/10 00:01:27;;;;;;;22.60;12.48;;;16.00;99.90;;;;;;5076852;28;20032;-65
2023/10/10 00:03:53;;;;;;;28.90;13.93;;;16.00;99.90;;;;;;5091023;28;20044;-65
2023/10/10 00:06:22;;;;;;;23.60;13.55;;;16.00;99.90;;;;;;5067183;28;20377;-65
2023/10/10 00:08:50;;;;;;;22.83;12.80;;;16.00;99.90;;;;;;5075117;28;20115;-65
2023/10/10 00:11:19;;;;;;;23.02;12.88;;;16.00;99.90;;;;;;5073287;28;20036;-66
2023/10/10 00:13:46;;;;;;;27.08;13.80;;;16.00;99.90;;;;;;5072169;28;20190;-65
2023/10/10 00:19:11;;;;;;;25.92;14.05;;;16.00;99.90;;;;;;5069787;28;20038;-65
2023/10/10 00:21:38;;;;;;;24.38;13.68;;;16.00;99.90;;;;;;5074499;28;20078;-65
2023/10/10 00:24:03;;;;;;;28.70;14.82;;;16.00;99.90;;;;;;5081370;28;20097;-65
2023/10/10 00:26:29;;;;;;;24.52;14.20;;;16.00;99.90;;;;;;5094150;28;20409;-65
2023/10/10 00:28:55;;;;;;;27.15;15.52;;;16.10;99.90;;;;;;5093211;28;20032;-65
2023/10/10 00:31:26;;;;;;;25.48;14.50;;;16.10;99.90;;;;;;5079164;28;20508;-65
2023/10/10 00:33:54;;;;;;;28.73;14.88;;;16.10;99.90;;;;;;5067567;28;20751;-64
2023/10/10 00:36:21;;;;;;;24.85;13.85;;;16.10;99.90;;;;;;5089453;28;20028;-65
2023/10/10 00:38:49;;;;;;;27.38;14.52;;;16.10;99.90;;;;;;5096394;28;20028;-65
2023/10/10 00:41:15;;;;;;;27.55;14.73;;;16.20;99.90;;;;;;5087121;28;20384;-65
2023/10/10 00:43:41;;;;;;;28.70;14.57;;;16.20;99.90;;;;;;5075963;28;20051;-66
2023/10/10 00:46:11;;;;;;;25.50;14.90;;;16.20;99.90;;;;;;5076161;28;20036;-65
2023/10/10 00:48:38;;;;;;;27.80;15.48;;;16.20;99.90;;;;;;5074315;28;20182;-66
2023/10/10 00:51:10;;;;;;;28.95;14.88;;;16.20;99.90;;;;;;5073316;28;20131;-65
2023/10/10 00:53:36;;;;;;;;;;;16.20;99.90;;;;;;5081828;28;20024;-66
2023/10/10 00:56:06;;;;;;;28.20;15.25;;;16.20;99.90;;;;;;5096012;28;19904;-66
2023/10/10 00:58:37;;;;;;;25.65;15.73;;;16.20;99.90;;;;;;5081190;28;20032;-66
2023/10/10 01:01:09;;;;;;;28.53;16.13;;;16.30;99.90;;;;;;5084168;28;20056;-66
2023/10/10 01:03:36;;;;;;;34.22;20.05;;;16.30;99.90;;;;;;5081082;28;20051;-66
2023/10/10 01:06:07;;;;;;;29.70;18.42;;;16.30;99.90;;;;;;5095819;28;20032;-65
2023/10/10 01:08:50;;;;;;;31.40;18.67;;;16.30;99.90;;;;;;5082252;28;20251;-65
2023/10/10 01:11:17;;;;;;;38.38;20.00;;;16.30;99.90;;;;;;5065584;28;20047;-65
2023/10/10 01:13:42;;;;;;;34.10;20.85;;;16.30;99.90;;;;;;5070383;28;20051;-64
2023/10/10 01:16:08;;;;;;;33.45;20.58;;;16.20;99.90;;;;;;5077359;28;20400;-65
2023/10/10 01:19:14;;;;;;;32.28;21.10;;;16.30;99.90;;;;;;5090699;28;20460;-65
2023/10/10 01:21:43;;;;;;;33.60;19.95;;;16.20;99.90;;;;;;5052701;28;20086;-65
2023/10/10 01:24:11;;;;;;;32.63;21.52;;;16.20;99.90;;;;;;5075184;28;20036;-66
2023/10/10 01:26:38;;;;;;;32.40;20.83;;;16.10;99.90;;;;;;5077225;28;20056;-66
2023/10/10 01:29:40;;;;;;;35.28;22.02;;;16.10;99.90;;;;;;5073222;28;20052;-66
2023/10/10 01:31:58;;;;;;;38.13;21.63;;;16.10;99.90;;;;;;5071802;28;20039;-65
2023/10/10 01:34:32;;;;;;;32.85;19.58;;;16.10;99.90;;;;;;5070390;28;20119;-65
2023/10/10 01:37:07;;;;;;;34.83;21.08;;;16.10;99.90;;;;;;5082487;28;20025;-65
2023/10/10 01:39:51;;;;;;;31.85;21.27;;;16.00;99.90;;;;;;5081099;28;20074;-65
2023/10/10 01:42:18;;;;;;;32.78;22.58;;;16.00;99.90;;;;;;5080086;28;20056;-65
2023/10/10 01:44:43;;;;;;;38.47;23.20;;;15.90;99.90;;;;;;5081083;28;20098;-65
2023/10/10 01:47:26;;;;;;;36.53;23.23;;;15.90;99.90;;;;;;5079862;28;20404;-65
2023/10/10 01:49:58;;;;;;;44.10;23.60;;;15.90;99.90;;;;;;5094820;28;20028;-64
2023/10/10 01:52:23;;;;;;;41.08;23.73;;;15.90;99.90;;;;;;5092914;28;20523;-65
2023/10/10 01:54:53;;;;;;;42.42;23.73;;;15.90;99.90;;;;;;5065578;28;20047;-65
2023/10/10 01:57:22;;;;;;;41.10;23.70;;;15.90;99.90;;;;;;5068115;28;20024;-64
2023/10/10 01:59:48;;;;;;;42.70;25.13;;;15.90;99.90;;;;;;5091517;28;20034;-65
2023/10/10 02:02:16;;;;;;;45.03;26.30;;;15.90;99.90;;;;;;5093063;28;20410;-65
2023/10/10 02:04:42;;;;;;;46.70;26.63;;;15.80;99.90;;;;;;5072726;28;20025;-65
2023/10/10 02:07:22;;;;;;;50.63;28.35;;;15.90;99.90;;;;;;5083515;28;20036;-65
2023/10/10 02:09:53;;;;;;;51.13;29.75;;;15.80;99.90;;;;;;5094395;28;20468;-65
2023/10/10 02:12:22;;;;;;;52.70;29.92;;;15.90;99.90;;;;;;5075978;28;20020;-65
2023/10/10 02:14:48;;;;;;;49.78;29.58;;;15.90;99.90;;;;;;5084408;28;20503;-65
2023/10/10 02:17:26;;;;;;;55.08;31.50;;;15.90;99.90;;;;;;5084484;28;20024;-65
2023/10/10 02:19:54;;;;;;;54.55;31.73;;;15.90;99.90;;;;;;5082893;28;20025;-64
2023/10/10 02:22:33;;;;;;;52.88;32.17;;;15.90;99.90;;;;;;5080213;28;20044;-65
2023/10/10 02:28:00;;;;;;;67.95;35.42;;;15.80;99.90;;;;;;5080295;28;20495;-65
2023/10/10 02:30:35;;;;;;;72.20;38.55;;;15.80;99.90;;;;;;5086180;28;20028;-64
2023/10/10 02:33:15;;;;;;;79.38;41.30;;;15.80;99.90;;;;;;5065320;28;20473;-65
2023/10/10 02:35:55;;;;;;;77.38;41.33;;;15.80;99.90;;;;;;5053995;28;20037;-64
2023/10/10 02:38:32;;;;;;;80.53;43.55;;;15.80;99.90;;;;;;5086680;28;20391;-65
2023/10/10 02:44:01;;;;;;;89.00;45.80;;;15.70;99.90;;;;;;5070033;28;20136;-64
2023/10/10 02:46:35;;;;;;;93.30;46.75;;;15.70;99.90;;;;;;5064524;28;20051;-65
2023/10/10 02:49:29;;;;;;;94.10;48.40;;;15.70;99.90;;;;;;5073297;28;20111;-64
2023/10/10 02:51:56;;;;;;;97.65;50.10;;;15.70;99.90;;;;;;5053194;28;20366;-64
2023/10/10 02:56:57;;;;;;;97.15;50.50;;;15.70;99.90;;;;;;5070246;28;20016;-65
2023/10/10 02:59:38;;;;;;;104.32;52.47;;;15.80;99.90;;;;;;5073639;28;20107;-65
2023/10/10 03:02:09;;;;;;;105.03;52.20;;;15.80;99.90;;;;;;5081686;28;20108;-65
2023/10/10 03:05:06;;;;;;;107.05;54.40;;;15.80;99.90;;;;;;5079680;28;20106;-65
2023/10/10 03:07:33;;;;;;;108.63;54.78;;;15.80;99.90;;;;;;5078361;28;20025;-65
2023/10/10 03:12:30;;;;;;;107.22;54.28;;;15.80;99.90;;;;;;5064252;28;20488;-63
2023/10/10 03:15:12;;;;;;;105.28;53.70;;;15.80;99.90;;;;;;5089560;28;20058;-64
2023/10/10 03:17:49;;;;;;;103.25;53.03;;;15.80;99.90;;;;;;5087102;28;20066;-64
2023/10/10 03:25:52;;;;;;;90.88;49.80;;;15.80;99.90;;;;;;5076714;28;20039;-64
2023/10/10 03:28:47;;;;;;;88.97;49.63;;;15.80;99.90;;;;;;5092926;28;20168;-64
2023/10/10 03:31:09;;;;;;;89.85;49.78;;;15.80;99.90;;;;;;5086351;28;20154;-65
2023/10/10 03:34:01;;;;;;;92.85;51.75;;;15.80;99.90;;;;;;5063789;28;20036;-64
2023/10/10 05:25:08;;;;;;;129.18;63.00;;;15.20;99.90;;;;;;5082490;28;20496;-65
2023/10/10 05:27:41;;;;;;;132.93;64.55;;;15.10;99.90;;;;;;5084265;28;20173;-65
2023/10/10 05:30:22;;;;;;;121.22;63.25;;;15.10;99.90;;;;;;5081854;28;20449;-65
2023/10/10 05:33:00;;;;;;;124.18;64.15;;;15.10;99.90;;;;;;5081258;28;20071;-64
2023/10/10 05:35:37;;;;;;;129.45;63.28;;;15.10;99.90;;;;;;5083791;28;20036;-64
2023/10/10 05:38:09;;;;;;;124.22;63.05;;;15.00;99.90;;;;;;5079330;28;20051;-64
2023/10/10 05:40:38;;;;;;;127.15;62.78;;;15.00;99.90;;;;;;5084571;28;20028;-64
2023/10/10 05:43:04;;;;;;;123.88;61.90;;;15.00;99.90;;;;;;5074792;28;20035;-64
2023/10/10 05:45:30;;;;;;;123.50;63.15;;;14.90;99.90;;;;;;5074780;28;20024;-64
2023/10/10 05:47:55;;;;;;;125.05;63.78;;;14.90;99.90;;;;;;5066760;28;20033;-64
2023/10/10 05:50:22;;;;;;;124.38;64.32;;;14.90;99.90;;;;;;5071206;28;20465;-64
2023/10/10 05:52:48;;;;;;;126.80;64.70;;;14.90;99.90;;;;;;5073847;28;20120;-64
2023/10/10 05:55:15;;;;;;;121.57;64.20;;;14.90;99.90;;;;;;5074147;28;20025;-64
2023/10/10 05:57:41;;;;;;;118.32;61.85;;;14.90;99.90;;;;;;5073479;28;20473;-65
2023/10/10 06:00:13;;;;;;;120.18;61.33;;;14.90;99.90;;;;;;5070190;28;20029;-64
2023/10/10 06:02:47;;;;;;;120.57;63.40;;;14.90;99.90;;;;;;5075839;28;20024;-65
2023/10/10 06:05:17;;;;;;;111.45;59.20;;;14.90;99.90;;;;;;5072591;28;20043;-65
2023/10/10 06:07:43;;;;;;;117.80;62.33;;;14.90;99.90;;;;;;5077999;28;20031;-64
2023/10/10 06:10:16;;;;;;;112.05;60.13;;;14.90;99.90;;;;;;5080193;28;20468;-64
2023/10/10 06:12:46;;;;;;;108.78;61.50;;;14.90;99.90;;;;;;5082253;28;20048;-64
2023/10/10 06:15:17;;;;;;;114.72;60.80;;;14.90;99.90;;;;;;5082646;28;20051;-64
2023/10/10 06:18:08;;;;;;;108.77;60.93;;;14.90;99.90;;;;;;5084082;28;20166;-64
2023/10/10 06:20:40;;;;;;;111.78;59.83;;;15.00;99.90;;;;;;5084919;28;20109;-65
2023/10/10 06:23:07;;;;;;;108.75;62.58;;;15.00;99.90;;;;;;5079207;28;20017;-64
2023/10/10 06:25:32;;;;;;;103.05;59.10;;;15.00;99.90;;;;;;5081509;28;20020;-64
2023/10/10 06:28:00;;;;;;;98.30;59.25;;;15.10;99.90;;;;;;5084685;28;20020;-64
2023/10/10 06:30:26;;;;;;;97.93;56.75;;;15.10;99.90;;;;;;5089376;28;20094;-64
2023/10/10 06:32:58;;;;;;;98.20;57.95;;;15.10;99.90;;;;;;5074270;28;20067;-64
2023/10/10 06:37:54;;;;;;;94.82;58.55;;;15.10;99.90;;;;;;5094123;28;20457;-64
2023/10/10 06:40:28;;;;;;;94.30;56.47;;;15.10;99.90;;;;;;5087962;28;20051;-64
2023/10/10 06:42:57;;;;;;;90.82;58.10;;;15.20;99.90;;;;;;5090236;28;20051;-64
2023/10/10 06:45:34;;;;;;;89.97;59.78;;;15.20;99.90;;;;;;5082354;28;20063;-63
2023/10/10 06:48:01;;;;;;;85.43;56.22;;;15.20;99.90;;;;;;5082372;28;20028;-64
2023/10/10 06:50:31;;;;;;;81.53;54.88;;;15.20;99.90;;;;;;5083621;28;20024;-63
2023/10/10 06:53:00;;;;;;;77.38;48.50;;;15.30;99.90;;;;;;5084438;28;20669;-64
2023/10/10 06:55:36;;;;;;;85.20;53.13;;;15.30;99.90;;;;;;5081163;28;20036;-64
2023/10/10 06:58:02;;;;;;;79.25;53.13;;;15.30;99.90;;;;;;5083580;28;20476;-64
2023/10/10 07:02:59;;;;;;;77.25;51.22;;;15.40;99.90;;;;;;5073478;28;20020;-63
2023/10/10 07:05:27;;;;;;;71.35;48.95;;;15.40;99.90;;;;;;5074181;28;20048;-64
2023/10/10 07:08:01;;;;;;;64.45;47.28;;;15.50;99.90;;;;;;5073156;28;20456;-64
2023/10/10 07:10:33;;;;;;;68.80;46.92;;;15.60;99.90;;;;;;5073251;28;20078;-63
2023/10/10 07:12:59;;;;;;;70.03;47.60;;;15.70;99.90;;;;;;5073293;28;20056;-64
2023/10/10 07:15:26;;;;;;;63.13;46.50;;;15.70;99.90;;;;;;5073209;28;20473;-64
2023/10/10 07:18:08;;;;;;;64.47;45.85;;;15.80;99.90;;;;;;5072564;28;20468;-64
2023/10/10 07:23:20;;;;;;;57.88;43.28;;;15.80;99.90;;;;;;5053115;28;20037;-64
2023/10/10 07:25:58;;;;;;;61.13;42.88;;;15.90;99.90;;;;;;5054101;28;20025;-64
2023/10/10 07:28:26;;;;;;;57.60;40.90;;;16.00;99.90;;;;;;5087523;28;20091;-64
2023/10/10 07:30:55;;;;;;;56.92;41.83;;;16.10;99.90;;;;;;5092698;28;20043;-64
2023/10/10 07:33:29;;;;;;;57.20;41.13;;;16.10;99.90;;;;;;5093414;28;20036;-64
2023/10/10 07:35:55;;;;;;;51.45;39.58;;;16.20;99.90;;;;;;5092022;28;20482;-64
2023/10/10 07:38:27;;;;;;;50.28;38.25;;;16.30;99.90;;;;;;5076677;28;20032;-64
2023/10/10 07:40:53;;;;;;;49.28;37.88;;;16.40;99.90;;;;;;5076444;28;20480;-64
2023/10/10 07:43:20;;;;;;;51.05;36.25;;;16.50;99.90;;;;;;5072003;28;20047;-64
2023/10/10 07:45:47;;;;;;;50.67;35.70;;;16.60;99.90;;;;;;5068538;28;20033;-65
2023/10/10 07:50:48;;;;;;;49.22;36.38;;;16.90;99.90;;;;;;5072210;28;20020;-64
2023/10/10 07:53:15;;;;;;;48.67;35.30;;;17.00;99.90;;;;;;5072617;28;20031;-64
2023/10/10 07:55:59;;;;;;;46.83;35.90;;;17.20;99.90;;;;;;5072708;28;20061;-65
2023/10/10 07:58:27;;;;;;;44.85;33.45;;;17.40;99.90;;;;;;5071585;28;20064;-64
2023/10/10 08:00:53;;;;;;;42.75;34.53;;;17.60;99.90;;;;;;5071231;28;20033;-64
2023/10/10 08:03:19;;;;;;;43.25;31.23;;;17.80;99.90;;;;;;5072513;28;20037;-64
2023/10/10 08:05:50;;;;;;;43.10;32.55;;;18.00;99.90;;;;;;5072112;28;20032;-64
2023/10/10 08:08:19;;;;;;;43.20;31.98;;;18.10;99.90;;;;;;5071835;28;20038;-64
2023/10/10 08:10:49;;;;;;;42.05;31.70;;;18.30;99.90;;;;;;5072097;28;20040;-64
2023/10/10 08:13:16;;;;;;;46.15;32.65;;;18.40;99.90;;;;;;5072452;28;20036;-65
2023/10/10 08:15:56;;;;;;;37.97;30.55;;;18.50;99.90;;;;;;5071344;28;20103;-64
2023/10/10 08:21:10;;;;;;;42.03;31.20;;;18.60;99.90;;;;;;5072241;28;20074;-65
2023/10/10 08:23:42;;;;;;;41.42;27.67;;;18.80;99.90;;;;;;5071794;28;20063;-65
2023/10/10 08:26:26;;;;;;;;;;;19.10;99.90;;;;;;5072627;28;20035;-65
2023/10/10 08:28:53;;;;;;;40.35;28.00;;;19.40;99.90;;;;;;5071915;28;19928;-65
2023/10/10 08:31:19;;;;;;;36.33;26.25;;;19.70;99.90;;;;;;5070362;28;20400;-65
2023/10/10 08:33:46;;;;;;;34.75;24.58;;;20.30;99.90;;;;;;5071549;28;20074;-65
2023/10/10 08:36:25;;;;;;;34.67;23.55;;;20.80;99.90;;;;;;5068686;28;20039;-65
2023/10/10 08:38:51;;;;;;;33.85;25.58;;;21.30;99.90;;;;;;5071272;28;20078;-66
2023/10/10 08:41:26;;;;;;;33.70;23.67;;;21.50;99.90;;;;;;5071622;28;20033;-65
2023/10/10 08:43:57;;;;;;;33.65;24.40;;;21.60;99.90;;;;;;5065993;28;20041;-65
2023/10/10 08:46:27;;;;;;;34.03;24.87;;;21.90;99.90;;;;;;5071885;28;20024;-65
2023/10/10 08:48:55;;;;;;;34.30;22.52;;;22.00;99.90;;;;;;5073012;28;20025;-65
2023/10/10 08:51:21;;;;;;;39.78;23.65;;;22.10;99.90;;;;;;5072831;28;20492;-65
2023/10/10 08:53:50;;;;;;;33.25;24.30;;;22.10;99.90;;;;;;5074848;28;20028;-65
2023/10/10 08:56:16;;;;;;;31.75;22.90;;;22.20;99.90;;;;;;5075153;28;20518;-66
2023/10/10 08:58:42;;;;;;;34.88;23.17;;;22.30;99.90;;;;;;5075566;28;20027;-66
2023/10/10 09:01:08;;;;;;;31.98;23.13;;;22.40;99.90;;;;;;5075615;28;20020;-66
2023/10/10 09:03:44;;;;;;;31.77;23.40;;;22.80;99.90;;;;;;5073911;28;20424;-66
2023/10/10 09:06:19;;;;;;;36.42;23.20;;;23.20;99.90;;;;;;5075354;28;20021;-65
2023/10/10 09:08:49;;;;;;;32.15;22.92;;;23.40;99.90;;;;;;5073880;28;20044;-63
2023/10/10 09:11:15;;;;;;;37.00;25.05;;;23.60;99.90;;;;;;5072930;28;20040;-67
2023/10/10 09:13:51;;;;;;;37.38;23.63;;;23.90;99.90;;;;;;5075030;28;20063;-66
2023/10/10 09:16:41;;;;;;;35.90;24.33;;;24.40;99.90;;;;;;5072763;28;20483;-65
2023/10/10 09:19:10;;;;;;;37.10;24.67;;;24.50;99.90;;;;;;5073745;28;20031;-65
2023/10/10 09:21:46;;;;;;;36.95;25.63;;;24.60;99.90;;;;;;5075467;28;20039;-65
2023/10/10 09:24:31;;;;;;;37.72;25.98;;;24.20;99.90;;;;;;5075355;28;20524;-64
2023/10/10 09:26:59;;;;;;;35.83;26.02;;;24.20;99.90;;;;;;5076020;28;20029;-65
2023/10/10 09:29:42;;;;;;;39.80;26.70;;;24.60;99.90;;;;;;5095089;28;20044;-65
2023/10/10 09:32:13;;;;;;;37.50;25.88;;;25.10;99.90;;;;;;5095539;28;20107;-64
2023/10/10 09:34:42;;;;;;;38.45;27.17;;;25.70;99.90;;;;;;5095490;28;20047;-64
2023/10/10 09:37:11;;;;;;;37.85;25.75;;;26.00;99.90;;;;;;5095422;28;20119;-64
2023/10/10 09:39:37;;;;;;;37.35;26.58;;;26.00;99.90;;;;;;5095406;28;20122;-64
2023/10/10 09:45:35;;;;;;;39.65;27.42;;;25.70;99.90;;;;;;5095189;28;20043;-64
2023/10/10 09:48:05;;;;;;;37.17;25.23;;;25.70;99.90;;;;;;5094845;28;20434;-65
2023/10/10 09:50:35;;;;;;;36.50;26.67;;;25.70;99.90;;;;;;5094462;28;20389;-64
2023/10/10 09:53:02;;;;;;;38.92;26.63;;;25.50;99.90;;;;;;5094292;28;20040;-64
2023/10/10 10:06:34;;;;;;;35.90;22.88;;;26.40;99.90;;;;;;5095027;28;20491;-65
2023/10/10 10:09:32;;;;;;;32.17;21.95;;;26.70;99.90;;;;;;5094552;28;20400;-65
2023/10/10 10:12:31;;;;;;;32.00;21.35;;;27.60;99.90;;;;;;5094155;28;20482;-65
2023/10/10 10:15:16;;;;;;;31.17;19.52;;;28.00;99.90;;;;;;5094698;28;20103;-65
2023/10/10 10:18:13;;;;;;;31.67;19.40;;;28.40;99.90;;;;;;5082003;28;20025;-66
2023/10/10 10:23:27;;;;;;;29.23;19.23;;;28.60;99.90;;;;;;5074261;28;20032;-65
2023/10/10 10:26:08;;;;;;;30.08;18.88;;;28.70;99.90;;;;;;5074309;28;20448;-65
2023/10/10 10:28:36;;;;;;;29.27;17.60;;;28.70;99.90;;;;;;5084370;28;20506;-65
2023/10/10 10:31:05;;;;;;;29.42;17.70;;;28.40;99.90;;;;;;5094106;28;20526;-65
2023/10/10 10:33:33;;;;;;;27.67;18.23;;;28.60;99.90;;;;;;5094304;28;20032;-65
2023/10/10 10:36:06;;;;;;;29.45;17.98;;;28.50;99.90;;;;;;5094248;28;20405;-65
2023/10/10 10:38:33;;;;;;;28.98;16.13;;;28.30;99.90;;;;;;5093721;28;20051;-65
2023/10/10 10:41:16;;;;;;;29.52;17.30;;;28.00;99.90;;;;;;5094028;28;20028;-66
2023/10/10 10:43:51;;;;;;;26.55;15.38;;;27.40;99.90;;;;;;5094113;28;20480;-65
2023/10/10 10:46:27;;;;;;;25.38;15.88;;;27.10;99.90;;;;;;5094069;28;20054;-65
2023/10/10 10:49:05;;;;;;;25.00;14.43;;;26.90;99.90;;;;;;5093658;28;20028;-65
2023/10/10 10:51:44;;;;;;;29.27;15.77;;;26.50;99.90;;;;;;5094001;28;20097;-66
2023/10/10 10:54:35;;;;;;;29.42;17.15;;;26.10;99.90;;;;;;5093432;28;20046;-65
2023/10/10 10:57:01;;;;;;;27.30;16.50;;;26.10;99.90;;;;;;5093862;28;20036;-66
2023/10/10 10:59:35;;;;;;;;;;;26.20;99.90;;;;;;5094213;28;20032;-65
2023/10/10 11:02:02;;;;;;;25.88;15.48;;;26.00;99.90;;;;;;5093812;28;19904;-65
2023/10/10 11:07:01;;;;;;;28.65;17.38;;;25.00;99.90;;;;;;5093378;28;20028;-65
2023/10/10 11:09:28;;;;;;;26.67;16.95;;;24.60;99.90;;;;;;5093249;28;20471;-65
2023/10/10 11:12:01;;;;;;;30.77;17.60;;;24.10;99.90;;;;;;5093512;28;20035;-65
2023/10/10 11:14:29;;;;;;;30.02;18.77;;;23.80;99.90;;;;;;5093472;28;20537;-65
2023/10/10 11:16:56;;;;;;;31.17;18.20;;;23.50;99.90;;;;;;5087999;28;20035;-65
2023/10/10 11:21:57;;;;;;;27.88;16.77;;;24.10;99.90;;;;;;5072964;28;20033;-64
2023/10/10 11:24:25;;;;;;;28.20;15.77;;;24.90;99.90;;;;;;5072881;28;20583;-66
2023/10/10 11:29:42;;;;;;;24.65;14.50;;;25.70;99.90;;;;;;5072526;28;20055;-65
2023/10/10 11:32:11;;;;;;;25.50;14.32;;;25.70;99.90;;;;;;5073057;28;20032;-65
2023/10/10 11:34:46;;;;;;;26.35;13.93;;;26.50;99.90;;;;;;5071389;28;20418;-66
2023/10/10 11:37:20;;;;;;;23.02;12.30;;;27.20;99.90;;;;;;5072612;28;20037;-66
2023/10/10 11:40:01;;;;;;;24.50;12.35;;;27.40;99.90;;;;;;5072919;28;20040;-64
2023/10/10 11:42:36;;;;;;;21.20;12.20;;;27.40;99.90;;;;;;5072894;28;20035;-66
2023/10/10 11:45:07;;;;;;;22.25;11.10;;;27.40;99.90;;;;;;5072631;28;20040;-64
2023/10/10 11:47:42;;;;;;;20.52;10.40;;;27.60;99.90;;;;;;5072621;28;20574;-64
2023/10/10 11:50:09;;;;;;;18.63;10.25;;;28.10;99.90;;;;;;5072608;28;20064;-64
2023/10/10 11:52:48;;;;;;;19.98;10.18;;;28.30;99.90;;;;;;5072569;28;20464;-65
2023/10/10 11:55:17;;;;;;;19.25;8.45;;;28.40;99.90;;;;;;5072407;28;20425;-65
2023/10/10 11:57:44;;;;;;;20.70;8.70;;;28.20;99.90;;;;;;5072538;28;20460;-64
2023/10/10 12:00:11;;;;;;;19.52;8.60;;;27.80;99.90;;;;;;5072585;28;20039;-64
2023/10/10 12:02:40;;;;;;;18.33;7.63;;;27.10;99.90;;;;;;5072531;28;20029;-64
2023/10/10 12:08:05;;;;;;;17.27;7.15;;;26.10;99.90;;;;;;5055725;28;20047;-64
2023/10/10 12:10:47;;;;;;;16.58;7.47;;;25.80;99.90;;;;;;5072306;28;20032;-64
2023/10/10 12:13:25;;;;;;;19.80;7.30;;;25.60;99.90;;;;;;5071297;28;20446;-64
2023/10/10 12:15:51;;;;;;;15.70;7.00;;;25.30;99.90;;;;;;5072351;28;20029;-64
2023/10/10 12:18:16;;;;;;;16.38;7.35;;;25.10;99.90;;;;;;5069986;28;20035;-64
2023/10/10 12:20:44;;;;;;;15.55;6.78;;;25.10;99.90;;;;;;5071009;28;20390;-65
2023/10/10 12:23:13;;;;;;;18.00;6.88;;;25.40;99.90;;;;;;5077891;28;20090;-64
2023/10/10 12:25:41;;;;;;;18.80;7.32;;;25.70;99.90;;;;;;5078819;28;20138;-64
2023/10/10 12:28:12;;;;;;;14.15;5.90;;;26.20;99.90;;;;;;5078824;28;20468;-64
2023/10/10 12:30:41;;;;;;;;;;;26.70;99.90;;;;;;5079149;28;20052;-65
2023/10/10 12:33:13;;;;;;;13.95;5.93;;;26.80;99.90;;;;;;5078898;28;19950;-64
2023/10/10 12:35:47;;;;;;;15.93;6.38;;;26.90;99.90;;;;;;5078670;28;20063;-65
2023/10/10 12:38:15;;;;;;;16.13;6.45;;;27.00;99.90;;;;;;5078163;28;20082;-65
2023/10/10 12:40:43;;;;;;;15.73;5.50;;;27.30;99.90;;;;;;5077729;28;20033;-65
2023/10/10 12:43:11;;;;;;;15.00;5.55;;;27.30;99.90;;;;;;5078724;28;20077;-65
2023/10/10 12:45:37;;;;;;;15.13;5.35;;;27.40;99.90;;;;;;5078610;28;20037;-66
2023/10/10 12:48:04;;;;;;;14.27;5.78;;;27.70;99.90;;;;;;5078532;28;20039;-66
2023/10/10 12:50:30;;;;;;;15.60;5.20;;;28.20;98.90;;;;;;5078059;28;20060;-65
2023/10/10 12:53:07;;;;;;;14.13;4.60;;;28.60;99.20;;;;;;5078895;28;20494;-65
2023/10/10 12:55:48;;;;;;;13.73;5.35;;;28.90;98.70;;;;;;5078741;28;20112;-65
2023/10/10 12:58:24;;;;;;;14.43;5.70;;;29.10;97.90;;;;;;5078772;28;20024;-66
2023/10/10 13:00:51;;;;;;;16.70;5.68;;;28.80;98.00;;;;;;5078821;28;20028;-65
2023/10/10 13:03:27;;;;;;;13.30;5.07;;;28.40;98.40;;;;;;5078558;28;20108;-66
2023/10/10 13:06:00;;;;;;;12.10;5.40;;;27.90;98.70;;;;;;5078949;28;20414;-65
2023/10/10 13:08:38;;;;;;;15.75;5.70;;;27.50;98.90;;;;;;5077620;28;20380;-65
2023/10/10 13:11:32;;;;;;;19.02;6.70;;;26.90;99.60;;;;;;5078516;28;20047;-65
2023/10/10 13:14:08;;;;;;;15.75;5.57;;;26.60;99.90;;;;;;5078046;28;20036;-65
2023/10/10 13:19:09;;;;;;;15.63;6.13;;;25.70;99.90;;;;;;5078139;28;20035;-65
2023/10/10 13:21:36;;;;;;;14.65;5.50;;;25.40;99.90;;;;;;5078518;28;20082;-65
2023/10/10 13:24:03;;;;;;;13.27;5.65;;;25.10;99.90;;;;;;5078272;28;20035;-66
2023/10/10 13:26:29;;;;;;;12.80;5.30;;;25.00;99.90;;;;;;5078259;28;20029;-65
2023/10/10 13:28:54;;;;;;;10.68;4.70;;;25.00;99.90;;;;;;5078421;28;20362;-65
2023/10/10 13:31:24;;;;;;;14.93;5.50;;;24.90;99.90;;;;;;5078172;28;20024;-65
2023/10/10 13:33:50;;;;;;;12.13;5.35;;;24.80;99.90;;;;;;5075372;28;20047;-65
2023/10/10 13:36:16;;;;;;;14.45;5.13;;;24.70;99.90;;;;;;5075157;28;20037;-65
2023/10/10 13:38:47;;;;;;;13.98;5.80;;;24.60;99.90;;;;;;5074640;28;20532;-64
2023/10/10 13:41:16;;;;;;;14.43;5.47;;;24.40;99.90;;;;;;5075194;28;20463;-65
2023/10/10 13:43:44;;;;;;;12.10;5.40;;;24.30;99.90;;;;;;5074538;28;20048;-66
2023/10/10 13:46:09;;;;;;;14.95;6.10;;;24.20;99.90;;;;;;5075134;28;20082;-65
2023/10/10 13:48:36;;;;;;;14.20;5.53;;;24.20;99.90;;;;;;5075046;28;20423;-64
2023/10/10 13:51:04;;;;;;;16.00;5.57;;;24.10;99.90;;;;;;5074843;28;20102;-65
2023/10/10 13:53:31;;;;;;;17.05;5.78;;;24.20;99.90;;;;;;5074893;28;20030;-66
2023/10/10 13:56:00;;;;;;;11.90;5.30;;;24.10;99.90;;;;;;5074838;28;20028;-65
2023/10/10 13:58:26;;;;;;;10.05;4.88;;;24.10;99.90;;;;;;5074643;28;20037;-65
2023/10/10 14:01:13;;;;;;;15.70;5.60;;;24.10;99.90;;;;;;5074542;28;20457;-66
2023/10/10 14:03:46;;;;;;;15.32;5.88;;;24.10;99.90;;;;;;5074666;28;20046;-65
2023/10/10 14:06:16;;;;;;;18.40;5.43;;;24.10;99.90;;;;;;5074689;28;20078;-66
2023/10/10 14:08:49;;;;;;;14.18;5.00;;;24.00;99.90;;;;;;5074475;28;20070;-66
2023/10/10 14:11:22;;;;;;;13.25;5.25;;;24.10;99.90;;;;;;5074351;28;20029;-66
2023/10/10 14:13:49;;;;;;;17.25;5.90;;;24.10;99.90;;;;;;5074571;28;20028;-64
2023/10/10 14:16:15;;;;;;;15.63;5.43;;;24.10;99.90;;;;;;5074432;28;20040;-66
2023/10/10 14:18:46;;;;;;;17.23;5.95;;;24.10;99.90;;;;;;5059500;28;20028;-65
2023/10/10 14:21:13;;;;;;;15.75;6.72;;;24.10;99.90;;;;;;5074044;28;20112;-65
2023/10/10 14:23:39;;;;;;;19.27;6.45;;;24.20;99.90;;;;;;5073914;28;20560;-66
2023/10/10 14:26:18;;;;;;;18.35;5.75;;;24.30;99.90;;;;;;5074372;28;20020;-64
2023/10/10 14:28:51;;;;;;;13.68;5.50;;;24.30;99.90;;;;;;5074478;28;20099;-66
2023/10/10 14:31:21;;;;;;;13.63;5.18;;;24.30;99.90;;;;;;5073995;28;20028;-65
2023/10/10 14:33:47;;;;;;;15.38;5.38;;;24.30;99.90;;;;;;5078648;28;20103;-66
2023/10/10 14:36:14;;;;;;;18.85;6.60;;;24.30;99.90;;;;;;5092761;28;20027;-67
2023/10/10 14:38:48;;;;;;;17.23;6.72;;;24.30;99.90;;;;;;5073967;28;20050;-66
2023/10/10 14:41:19;;;;;;;15.68;6.90;;;24.30;99.90;;;;;;5073989;28;20021;-66
2023/10/10 14:43:47;;;;;;;;;;;24.30;99.90;;;;;;5074301;28;20396;-66
2023/10/10 14:46:31;;;;;;;16.65;5.93;;;24.40;99.90;;;;;;5072907;28;20364;-66
2023/10/10 14:49:06;;;;;;;16.95;6.30;;;24.30;99.90;;;;;;5073975;28;20062;-66
2023/10/10 14:51:33;;;;;;;13.07;4.47;;;24.20;99.90;;;;;;5073774;28;20052;-66
2023/10/10 14:54:08;;;;;;;12.30;4.75;;;24.10;99.90;;;;;;5073407;28;20503;-65
2023/10/10 14:56:35;;;;;;;10.55;4.60;;;24.00;99.90;;;;;;5073327;28;20071;-65
2023/10/10 14:59:06;;;;;;;20.08;9.27;;;23.80;99.90;;;;;;5073265;28;20025;-65
2023/10/10 15:01:35;;;;;;;12.88;6.28;;;23.80;99.90;;;;;;5073189;28;20032;-68
2023/10/10 15:04:05;;;;;;;19.17;5.68;;;23.80;99.90;;;;;;5073413;28;20044;-66
2023/10/10 15:06:31;;;;;;;13.82;5.63;;;23.80;99.90;;;;;;5073036;28;20021;-67
2023/10/10 15:08:58;;;;;;;11.60;5.15;;;23.60;99.90;;;;;;5071629;28;20032;-66
2023/10/10 15:11:29;;;;;;;10.30;4.57;;;23.60;99.90;;;;;;5072804;28;20021;-66
2023/10/10 15:13:56;;;;;;;16.67;7.55;;;23.50;99.60;;;;;;5073705;28;20110;-66
2023/10/10 15:16:23;;;;;;;15.40;6.80;;;23.40;99.90;;;;;;5073041;28;20457;-66
2023/10/10 15:18:52;;;;;;;11.13;5.07;;;23.30;99.90;;;;;;5073013;28;20028;-65
2023/10/10 15:21:19;;;;;;;12.65;5.10;;;23.30;99.90;;;;;;5073172;28;20028;-66
2023/10/10 15:23:46;;;;;;;12.20;5.63;;;23.20;99.90;;;;;;5072878;28;20032;-66
2023/10/10 15:26:17;;;;;;;11.57;5.00;;;23.10;99.90;;;;;;5072454;28;20039;-66
2023/10/10 15:28:43;;;;;;;12.77;4.88;;;23.00;99.90;;;;;;5072193;28;20423;-67
2023/10/10 15:31:09;;;;;;;13.35;4.85;;;22.90;99.90;;;;;;5072740;28;20032;-66
2023/10/10 15:33:36;;;;;;;12.77;4.90;;;22.80;99.90;;;;;;5072561;28;20028;-66
2023/10/10 15:36:06;;;;;;;13.18;5.20;;;22.70;99.90;;;;;;5072712;28;20044;-66
2023/10/10 15:38:32;;;;;;;14.02;5.72;;;22.50;99.90;;;;;;5072758;28;20048;-65
2023/10/10 15:40:57;;;;;;;11.60;5.35;;;22.50;99.90;;;;;;5072665;28;20087;-66
2023/10/10 15:43:24;;;;;;;15.38;6.70;;;22.40;99.90;;;;;;5072712;28;20032;-66